createdAt,value
2023-02-13T00:00:17.982Z,60.36
2023-02-13T00:02:45.101Z,60.62
2023-02-13T00:05:12.261Z,60.13
2023-02-13T00:07:38.819Z,60.20
2023-02-13T00:10:06.072Z,60.02
2023-02-13T00:12:32.682Z,60.89
2023-02-13T00:15:00.284Z,59.98
2023-02-13T00:17:27.313Z,59.96
2023-02-13T00:19:54.049Z,61.12
2023-02-13T00:22:20.883Z,64.08
2023-02-13T00:24:47.548Z,62.69
2023-02-13T00:27:14.161Z,61.66
2023-02-13T00:29:40.856Z,62.15
2023-02-13T00:32:07.774Z,62.45
2023-02-13T00:34:34.644Z,61.82
2023-02-13T00:37:01.211Z,61.54
2023-02-13T00:39:27.943Z,61.28
2023-02-13T00:41:54.592Z,63.16
2023-02-13T00:44:21.212Z,62.85
2023-02-13T00:46:47.905Z,62.18
2023-02-13T00:49:14.581Z,61.85
2023-02-13T00:51:41.208Z,61.39
2023-02-13T00:54:07.790Z,61.45
2023-02-13T00:56:34.392Z,62.23
2023-02-13T00:59:01.050Z,62.53
2023-02-13T01:01:27.721Z,62.82
2023-02-13T01:03:54.385Z,62.11
2023-02-13T01:06:21.016Z,61.92
2023-02-13T01:08:47.572Z,61.60
2023-02-13T01:11:14.204Z,62.23
2023-02-13T01:13:40.908Z,62.39
2023-02-13T01:16:07.775Z,62.27
2023-02-13T01:18:34.404Z,63.10
2023-02-13T01:21:04.038Z,62.13
2023-02-13T01:23:32.634Z,62.22
2023-02-13T01:25:59.756Z,62.15
2023-02-13T01:28:26.896Z,62.75
2023-02-13T01:30:55.586Z,62.93
2023-02-13T01:33:24.084Z,62.94
2023-02-13T01:35:51.340Z,62.37
2023-02-13T01:38:18.326Z,63.11
2023-02-13T01:40:50.126Z,62.79
2023-02-13T01:43:17.018Z,62.03
2023-02-13T01:45:47.028Z,61.83
2023-02-13T01:48:18.290Z,62.31
2023-02-13T01:51:11.746Z,62.21
2023-02-13T01:53:45.965Z,62.35
2023-02-13T01:56:24.076Z,62.51
2023-02-13T01:58:54.473Z,63.90
2023-02-13T02:01:23.393Z,63.50
2023-02-13T02:03:59.813Z,62.78
2023-02-13T02:06:35.928Z,62.83
2023-02-13T02:09:08.136Z,62.35
2023-02-13T02:11:41.584Z,62.26
2023-02-13T02:14:08.640Z,62.39
2023-02-13T02:16:36.043Z,62.61
2023-02-13T02:19:05.888Z,62.79
2023-02-13T02:22:00.883Z,63.55
2023-02-13T02:24:49.619Z,62.68
2023-02-13T02:27:51.685Z,63.26
2023-02-13T02:30:46.049Z,63.02
2023-02-13T02:33:12.683Z,63.15
2023-02-13T02:36:14.279Z,62.19
2023-02-13T02:38:49.837Z,62.79
2023-02-13T02:41:42.097Z,62.03
2023-02-13T02:44:36.528Z,65.47
2023-02-13T02:47:27.609Z,65.98
2023-02-13T02:50:12.324Z,65.30
2023-02-13T02:53:09.514Z,64.18
2023-02-13T02:55:39.944Z,63.73
2023-02-13T02:58:47.566Z,63.43
2023-02-13T03:01:36.941Z,63.54
2023-02-13T03:04:23.418Z,62.97
2023-02-13T03:06:56.535Z,62.96
2023-02-13T03:09:50.076Z,63.29
2023-02-13T03:12:41.472Z,63.07
2023-02-13T03:15:09.843Z,63.14
2023-02-13T03:17:55.817Z,62.35
2023-02-13T03:21:13.570Z,63.58
2023-02-13T03:24:07.921Z,62.82
2023-02-13T03:27:02.201Z,62.86
2023-02-13T03:29:59.159Z,63.16
2023-02-13T03:32:51.651Z,63.63
2023-02-13T03:35:58.145Z,62.80
2023-02-13T03:38:32.630Z,64.02
2023-02-13T03:41:19.937Z,64.35
2023-02-13T03:43:49.300Z,63.81
2023-02-13T03:46:17.832Z,63.64
2023-02-13T03:49:18.667Z,63.40
2023-02-13T03:52:03.584Z,63.79
2023-02-13T03:54:56.153Z,64.65
2023-02-13T03:57:44.159Z,65.99
2023-02-13T04:00:13.794Z,66.59
2023-02-13T04:02:50.275Z,65.98
2023-02-13T04:05:21.490Z,64.58
2023-02-13T04:07:49.228Z,64.63
2023-02-13T04:10:17.281Z,65.23
2023-02-13T04:12:49.903Z,65.04
2023-02-13T04:15:21.803Z,65.33
2023-02-13T04:18:04.556Z,64.71
2023-02-13T04:20:34.212Z,64.84
2023-02-13T04:23:08.554Z,65.51
2023-02-13T04:25:37.822Z,64.92
2023-02-13T04:28:05.056Z,65.26
2023-02-13T04:30:31.806Z,64.09
2023-02-13T04:32:58.759Z,64.50
2023-02-13T04:35:25.570Z,64.29
2023-02-13T04:37:52.648Z,64.17
2023-02-13T04:40:19.372Z,65.55
2023-02-13T04:42:48.925Z,63.55
2023-02-13T04:45:16.202Z,63.98
2023-02-13T04:47:43.515Z,63.83
2023-02-13T04:50:10.460Z,62.71
2023-02-13T04:52:37.182Z,63.07
2023-02-13T04:55:04.122Z,63.96
2023-02-13T04:57:30.756Z,63.38
2023-02-13T04:59:57.395Z,65.13
2023-02-13T05:02:24.069Z,63.98
2023-02-13T05:04:50.757Z,63.20
2023-02-13T05:07:17.457Z,63.36
2023-02-13T05:09:44.057Z,63.14
2023-02-13T05:12:10.698Z,62.96
2023-02-13T05:14:37.393Z,63.12
2023-02-13T05:17:04.003Z,62.27
2023-02-13T05:19:30.620Z,61.93
2023-02-13T05:22:16.170Z,62.44
2023-02-13T05:24:42.807Z,62.77
2023-02-13T05:27:09.445Z,62.63
2023-02-13T05:29:36.062Z,62.14
2023-02-13T05:32:02.826Z,62.49
2023-02-13T05:34:29.883Z,61.96
2023-02-13T05:36:56.667Z,61.71
2023-02-13T05:39:23.462Z,62.25
2023-02-13T05:41:50.608Z,64.43
2023-02-13T05:44:17.575Z,64.42
2023-02-13T05:46:45.051Z,63.04
2023-02-13T05:49:13.885Z,63.58
2023-02-13T05:51:40.718Z,64.89
2023-02-13T05:54:07.291Z,64.35
2023-02-13T05:56:33.898Z,64.17
2023-02-13T05:59:00.589Z,64.03
2023-02-13T06:01:27.217Z,65.74
2023-02-13T06:03:53.911Z,64.65
2023-02-13T06:06:21.385Z,64.07
2023-02-13T06:08:48.186Z,63.63
2023-02-13T06:11:14.774Z,63.67
2023-02-13T06:13:41.394Z,63.45
2023-02-13T06:16:09.674Z,64.63
2023-02-13T06:18:36.704Z,64.78
2023-02-13T06:21:03.803Z,63.73
2023-02-13T06:23:30.459Z,63.62
2023-02-13T06:25:57.328Z,64.13
2023-02-13T06:28:23.980Z,64.31
2023-02-13T06:30:50.824Z,64.86
2023-02-13T06:33:17.537Z,64.42
2023-02-13T06:35:44.144Z,63.40
2023-02-13T06:38:10.766Z,64.82
2023-02-13T06:40:37.325Z,64.40
2023-02-13T06:43:04.032Z,63.23
2023-02-13T06:45:30.726Z,64.09
2023-02-13T06:47:57.483Z,66.05
2023-02-13T06:50:24.347Z,65.47
2023-02-13T06:52:52.398Z,64.93
2023-02-13T06:55:19.193Z,65.05
2023-02-13T06:57:46.383Z,64.72
2023-02-13T07:00:15.015Z,65.08
2023-02-13T07:02:43.327Z,64.88
2023-02-13T07:05:11.581Z,65.94
2023-02-13T07:07:40.513Z,64.59
2023-02-13T07:10:10.794Z,63.72
2023-02-13T07:12:37.601Z,63.81
2023-02-13T07:15:05.339Z,64.00
2023-02-13T07:17:32.404Z,63.32
2023-02-13T07:19:59.077Z,64.07
2023-02-13T07:22:25.731Z,63.59
2023-02-13T07:24:52.339Z,64.65
2023-02-13T07:27:19.019Z,64.72
2023-02-13T07:29:45.568Z,65.75
2023-02-13T07:32:12.291Z,65.02
2023-02-13T07:34:41.195Z,65.21
2023-02-13T07:37:13.168Z,65.69
2023-02-13T07:39:39.871Z,65.37
2023-02-13T07:42:06.625Z,65.12
2023-02-13T07:44:33.510Z,65.22
2023-02-13T07:47:01.292Z,65.66
2023-02-13T07:49:28.063Z,63.67
2023-02-13T07:51:58.052Z,64.87
2023-02-13T07:54:24.955Z,63.96
2023-02-13T07:56:51.670Z,63.59
2023-02-13T07:59:18.330Z,63.36
2023-02-13T08:01:44.984Z,63.50
2023-02-13T08:04:11.704Z,64.16
2023-02-13T08:06:42.209Z,63.08
2023-02-13T08:09:38.861Z,62.64
2023-02-13T08:12:08.714Z,61.97
2023-02-13T08:14:35.518Z,62.47
2023-02-13T08:17:02.284Z,63.52
2023-02-13T08:19:29.467Z,64.82
2023-02-13T08:21:56.515Z,62.04
2023-02-13T08:24:23.241Z,62.73
2023-02-13T08:26:49.874Z,63.73
2023-02-13T08:29:16.851Z,63.16
2023-02-13T08:31:43.889Z,62.91
2023-02-13T08:34:10.947Z,62.53
2023-02-13T08:36:37.639Z,62.93
2023-02-13T08:39:04.426Z,63.10
2023-02-13T08:41:31.060Z,63.01
2023-02-13T08:43:57.712Z,63.08
2023-02-13T08:46:24.385Z,60.92
2023-02-13T08:48:51.051Z,60.81
2023-02-13T08:51:17.641Z,62.19
2023-02-13T08:53:44.336Z,62.70
2023-02-13T08:56:11.534Z,61.85
2023-02-13T08:58:38.578Z,63.42
2023-02-13T09:01:07.074Z,62.73
2023-02-13T09:03:34.697Z,61.23
2023-02-13T09:06:02.531Z,61.71
2023-02-13T09:08:29.173Z,61.73
2023-02-13T09:11:01.417Z,62.18
2023-02-13T09:13:33.661Z,60.32
2023-02-13T09:16:02.471Z,60.49
2023-02-13T09:18:29.237Z,61.63
2023-02-13T09:21:07.149Z,61.02
2023-02-13T09:23:35.971Z,60.25
2023-02-13T09:26:04.468Z,60.71
2023-02-13T09:28:32.997Z,59.52
2023-02-13T09:30:59.727Z,59.73
2023-02-13T09:33:26.890Z,60.20
2023-02-13T09:35:53.471Z,59.66
2023-02-13T09:38:20.103Z,61.02
2023-02-13T09:40:56.276Z,59.66
2023-02-13T09:43:38.485Z,58.22
2023-02-13T09:46:14.644Z,59.04
2023-02-13T09:48:45.539Z,60.04
2023-02-13T09:51:18.349Z,60.43
2023-02-13T09:53:58.032Z,60.55
2023-02-13T09:56:49.558Z,58.92
2023-02-13T09:59:42.163Z,60.15
2023-02-13T10:02:47.637Z,63.03
2023-02-13T10:05:32.049Z,62.81
2023-02-13T10:08:14.445Z,63.72
2023-02-13T10:10:57.855Z,61.96
2023-02-13T10:13:47.653Z,61.31
2023-02-13T10:16:27.390Z,60.91
2023-02-13T10:19:00.475Z,61.20
2023-02-13T10:21:34.240Z,61.53
2023-02-13T10:24:12.631Z,59.90
2023-02-13T10:26:43.452Z,58.70
2023-02-13T10:29:33.112Z,59.80
2023-02-13T10:32:04.210Z,59.73
2023-02-13T10:34:38.722Z,59.61
2023-02-13T10:37:13.989Z,59.20
2023-02-13T10:39:42.184Z,59.61
2023-02-13T10:42:22.996Z,60.11
2023-02-13T10:44:58.626Z,59.21
2023-02-13T10:47:37.496Z,58.85
2023-02-13T10:50:32.134Z,58.59
2023-02-13T10:53:08.196Z,58.07
2023-02-13T10:55:54.492Z,56.75
2023-02-13T10:58:26.063Z,55.79
2023-02-13T11:01:40.260Z,56.37
2023-02-13T11:04:12.778Z,56.59
2023-02-13T11:06:49.284Z,56.23
2023-02-13T11:09:15.854Z,56.92
2023-02-13T11:11:43.949Z,58.09
2023-02-13T11:14:16.712Z,56.91
2023-02-13T11:17:18.484Z,55.65
2023-02-13T11:19:54.181Z,53.65
2023-02-13T11:22:42.777Z,54.96
2023-02-13T11:25:26.255Z,55.42
2023-02-13T11:28:09.233Z,54.09
2023-02-13T11:30:37.784Z,54.65
2023-02-13T11:33:17.678Z,53.47
2023-02-13T11:35:46.601Z,54.25
2023-02-13T11:38:15.789Z,52.79
2023-02-13T11:41:05.638Z,52.84
2023-02-13T11:43:48.537Z,52.75
2023-02-13T11:46:20.465Z,53.94
2023-02-13T11:49:21.344Z,52.78
2023-02-13T11:51:54.180Z,52.46
2023-02-13T11:54:44.307Z,51.91
2023-02-13T11:57:19.914Z,50.83
2023-02-13T11:59:49.687Z,51.33
2023-02-13T12:02:19.572Z,50.37
2023-02-13T12:04:47.657Z,50.27
2023-02-13T12:07:29.487Z,50.59
2023-02-13T12:10:24.067Z,51.80
2023-02-13T12:12:55.188Z,51.12
2023-02-13T12:15:30.574Z,50.91
2023-02-13T12:18:03.458Z,50.35
2023-02-13T12:20:40.125Z,51.16
2023-02-13T12:23:18.768Z,51.92
2023-02-13T12:26:00.295Z,50.20
2023-02-13T12:28:42.433Z,49.11
2023-02-13T12:31:27.965Z,48.11
2023-02-13T12:34:06.700Z,48.66
2023-02-13T12:36:39.544Z,48.61
2023-02-13T12:39:09.591Z,48.13
2023-02-13T12:41:48.019Z,48.68
2023-02-13T12:44:43.947Z,48.31
2023-02-13T12:47:23.936Z,48.43
2023-02-13T12:50:18.098Z,48.24
2023-02-13T12:52:50.766Z,47.66
2023-02-13T12:55:53.951Z,47.28
2023-02-13T12:58:38.539Z,48.28
2023-02-13T13:01:17.786Z,48.01
2023-02-13T13:04:34.954Z,48.50
2023-02-13T13:07:15.066Z,49.30
2023-02-13T13:10:04.356Z,47.76
2023-02-13T13:13:06.449Z,47.69
2023-02-13T13:15:44.393Z,47.09
2023-02-13T13:18:22.847Z,47.60
2023-02-13T13:21:02.071Z,47.91
2023-02-13T13:23:37.870Z,46.34
2023-02-13T13:26:23.339Z,46.33
2023-02-13T13:28:54.696Z,46.77
2023-02-13T13:31:26.194Z,47.04
2023-02-13T13:33:56.286Z,47.60
2023-02-13T13:36:25.435Z,48.27
2023-02-13T13:38:52.124Z,47.72
2023-02-13T13:42:02.837Z,46.25
2023-02-13T13:45:00.885Z,46.95
2023-02-13T13:47:39.252Z,46.58
2023-02-13T13:50:17.478Z,46.78
2023-02-13T13:53:11.913Z,47.05
2023-02-13T13:55:50.298Z,46.33
2023-02-13T13:58:46.865Z,47.66
2023-02-13T14:01:16.562Z,47.61
2023-02-13T14:03:45.919Z,47.79
2023-02-13T14:06:15.802Z,47.39
2023-02-13T14:08:44.308Z,49.02
2023-02-13T14:11:35.649Z,48.34
2023-02-13T14:14:03.280Z,47.74
2023-02-13T14:16:57.845Z,48.00
2023-02-13T14:19:32.591Z,48.00
2023-02-13T14:22:20.771Z,47.95
2023-02-13T14:24:55.876Z,47.76
2023-02-13T14:27:25.206Z,47.73
2023-02-13T14:29:52.122Z,47.89
2023-02-13T14:32:30.877Z,48.04
2023-02-13T14:35:02.385Z,47.94
2023-02-13T14:37:40.131Z,48.10
2023-02-13T14:40:44.077Z,47.42
2023-02-13T14:43:22.578Z,48.77
2023-02-13T14:45:55.701Z,48.72
2023-02-13T14:48:33.609Z,50.02
2023-02-13T14:51:00.913Z,49.29
2023-02-13T14:53:34.460Z,48.72
2023-02-13T14:56:10.978Z,48.06
2023-02-13T14:58:58.533Z,48.95
2023-02-13T15:01:34.527Z,50.18
2023-02-13T15:04:12.971Z,48.67
2023-02-13T15:06:42.729Z,48.92
2023-02-13T15:09:39.023Z,49.75
2023-02-13T15:12:27.808Z,49.20
2023-02-13T15:14:54.644Z,49.89
2023-02-13T15:17:30.194Z,49.98
2023-02-13T15:20:04.965Z,48.84
2023-02-13T15:22:35.643Z,49.00
2023-02-13T15:25:03.086Z,48.50
2023-02-13T15:27:32.627Z,48.64
2023-02-13T15:30:05.070Z,49.88
2023-02-13T15:32:37.036Z,50.15
2023-02-13T15:35:22.528Z,48.95
2023-02-13T15:37:49.262Z,48.67
2023-02-13T15:40:22.356Z,48.67
2023-02-13T15:42:49.251Z,49.08
2023-02-13T15:45:18.436Z,49.22
2023-02-13T15:47:46.965Z,49.13
2023-02-13T15:50:35.987Z,48.66
2023-02-13T15:53:10.027Z,48.62
2023-02-13T15:55:38.525Z,48.44
2023-02-13T15:58:05.592Z,49.11
2023-02-13T16:00:39.277Z,48.39
2023-02-13T16:03:12.908Z,48.69
2023-02-13T16:05:41.552Z,48.93
2023-02-13T16:08:29.118Z,49.29
2023-02-13T16:11:17.302Z,50.97
2023-02-13T16:14:13.867Z,51.06
2023-02-13T16:16:54.698Z,51.07
2023-02-13T16:19:44.999Z,50.87
2023-02-13T16:22:33.282Z,51.71
2023-02-13T16:25:23.028Z,52.84
2023-02-13T16:27:52.578Z,52.48
2023-02-13T16:30:33.123Z,52.86
2023-02-13T16:33:16.894Z,52.29
2023-02-13T16:35:50.594Z,52.02
2023-02-13T16:38:41.094Z,51.80
2023-02-13T16:41:19.625Z,52.38
2023-02-13T16:44:03.286Z,53.68
2023-02-13T16:46:32.896Z,53.82
2023-02-13T16:48:59.579Z,53.93
2023-02-13T16:51:43.501Z,53.95
2023-02-13T16:54:36.308Z,53.87
2023-02-13T16:57:18.205Z,54.33
2023-02-13T16:59:47.387Z,54.20
2023-02-13T17:02:19.871Z,54.50
2023-02-13T17:04:49.596Z,53.41
2023-02-13T17:07:27.999Z,52.85
2023-02-13T17:10:03.453Z,52.99
2023-02-13T17:12:31.915Z,52.32
2023-02-13T17:14:59.857Z,52.94
2023-02-13T17:17:30.418Z,54.35
2023-02-13T17:19:57.772Z,54.04
2023-02-13T17:22:30.375Z,54.02
2023-02-13T17:24:58.578Z,53.72
2023-02-13T17:27:25.156Z,53.22
2023-02-13T17:29:52.084Z,52.92
2023-02-13T17:32:22.282Z,52.83
2023-02-13T17:34:49.656Z,52.96
2023-02-13T17:37:27.871Z,53.30
2023-02-13T17:39:55.601Z,54.13
2023-02-13T17:42:25.015Z,53.78
2023-02-13T17:44:53.990Z,53.87
2023-02-13T17:47:23.225Z,53.79
2023-02-13T17:49:50.565Z,53.01
2023-02-13T17:52:24.221Z,52.65
2023-02-13T17:54:51.479Z,54.04
2023-02-13T17:57:19.450Z,54.47
2023-02-13T17:59:47.585Z,56.19
2023-02-13T18:02:17.585Z,55.12
2023-02-13T18:04:45.308Z,54.21
2023-02-13T18:07:13.871Z,55.16
2023-02-13T18:09:40.850Z,55.08
2023-02-13T18:12:16.449Z,54.76
2023-02-13T18:14:43.163Z,55.00
2023-02-13T18:17:09.970Z,55.09
2023-02-13T18:19:37.455Z,54.64
2023-02-13T18:22:05.458Z,55.22
2023-02-13T18:24:33.089Z,56.17
2023-02-13T18:27:00.022Z,56.31
2023-02-13T18:29:26.981Z,55.75
2023-02-13T18:31:54.532Z,56.55
2023-02-13T18:34:22.416Z,57.19
2023-02-13T18:36:49.548Z,57.17
2023-02-13T18:39:16.798Z,56.30
2023-02-13T18:41:43.902Z,55.24
2023-02-13T18:44:17.334Z,54.11
2023-02-13T18:46:50.198Z,54.39
2023-02-13T18:49:16.985Z,53.99
2023-02-13T18:51:44.542Z,54.93
2023-02-13T18:54:11.536Z,55.13
2023-02-13T18:56:38.172Z,55.58
2023-02-13T18:59:05.069Z,54.05
2023-02-13T19:01:31.795Z,54.06
2023-02-13T19:03:58.450Z,53.16
2023-02-13T19:06:26.110Z,52.04
2023-02-13T19:08:52.777Z,52.34
2023-02-13T19:11:23.374Z,52.58
2023-02-13T19:13:55.109Z,52.72
2023-02-13T19:16:22.128Z,53.39
2023-02-13T19:18:54.639Z,53.02
2023-02-13T19:21:24.095Z,52.13
2023-02-13T19:23:51.690Z,51.05
2023-02-13T19:26:20.906Z,51.84
2023-02-13T19:28:48.187Z,51.84
2023-02-13T19:31:18.779Z,51.89
2023-02-13T19:33:46.260Z,53.34
2023-02-13T19:36:15.541Z,52.52
2023-02-13T19:38:44.985Z,52.45
2023-02-13T19:41:17.339Z,51.15
2023-02-13T19:43:50.975Z,51.11
2023-02-13T19:46:20.503Z,51.73
2023-02-13T19:48:47.260Z,51.64
2023-02-13T19:51:16.412Z,52.82
2023-02-13T19:53:43.375Z,51.68
2023-02-13T19:56:10.360Z,52.97
2023-02-13T19:58:38.409Z,53.44
2023-02-13T20:01:08.186Z,52.94
2023-02-13T20:03:35.029Z,52.83
2023-02-13T20:06:12.926Z,51.23
2023-02-13T20:08:42.563Z,51.05
2023-02-13T20:11:11.042Z,51.11
2023-02-13T20:13:38.477Z,50.76
2023-02-13T20:16:06.618Z,50.21
2023-02-13T20:18:35.395Z,49.55
2023-02-13T20:21:09.466Z,49.41
2023-02-13T20:23:36.166Z,49.33
2023-02-13T20:26:05.054Z,50.37
2023-02-13T20:28:31.834Z,51.87
2023-02-13T20:30:59.167Z,50.89
2023-02-13T20:33:27.175Z,52.38
2023-02-13T20:35:53.768Z,52.42
2023-02-13T20:38:20.354Z,52.01
2023-02-13T20:40:46.908Z,52.51
2023-02-13T20:43:13.486Z,52.41
2023-02-13T20:45:40.105Z,52.42
2023-02-13T20:48:06.794Z,51.46
2023-02-13T20:50:33.405Z,52.89
2023-02-13T20:53:00.052Z,53.36
2023-02-13T20:55:26.697Z,52.71
2023-02-13T20:57:53.350Z,53.03
2023-02-13T21:00:20.252Z,52.74
2023-02-13T21:02:46.912Z,53.63
2023-02-13T21:05:13.570Z,53.32
2023-02-13T21:07:40.253Z,53.10
2023-02-13T21:10:08.044Z,52.95
2023-02-13T21:12:35.020Z,53.42
2023-02-13T21:15:01.862Z,52.83
2023-02-13T21:17:28.449Z,53.71
2023-02-13T21:19:55.110Z,53.54
2023-02-13T21:22:21.721Z,53.11
2023-02-13T21:24:49.711Z,54.11
2023-02-13T21:27:16.446Z,56.36
2023-02-13T21:29:43.071Z,56.10
2023-02-13T21:32:09.810Z,55.55
2023-02-13T21:34:36.604Z,54.52
2023-02-13T21:37:03.334Z,53.79
2023-02-13T21:39:29.998Z,55.20
2023-02-13T21:41:56.688Z,55.46
2023-02-13T21:44:23.513Z,55.62
2023-02-13T21:46:50.594Z,56.70
2023-02-13T21:49:18.769Z,56.85
2023-02-13T21:51:46.042Z,55.21
2023-02-13T21:54:13.613Z,54.94
2023-02-13T21:56:42.001Z,55.97
2023-02-13T21:59:09.200Z,57.24
2023-02-13T22:01:37.786Z,56.02
2023-02-13T22:04:07.666Z,58.19
2023-02-13T22:06:36.638Z,57.94
2023-02-13T22:09:06.635Z,56.20
2023-02-13T22:11:34.495Z,57.41
2023-02-13T22:14:03.645Z,56.80
2023-02-13T22:16:31.790Z,56.52
2023-02-13T22:18:59.454Z,56.14
2023-02-13T22:21:28.720Z,55.65
2023-02-13T22:23:55.434Z,55.62
2023-02-13T22:26:27.461Z,56.37
2023-02-13T22:28:56.021Z,56.71
2023-02-13T22:31:25.419Z,58.43
2023-02-13T22:34:02.971Z,57.17
2023-02-13T22:36:31.697Z,56.08
2023-02-13T22:38:58.364Z,56.16
2023-02-13T22:41:26.757Z,56.23
2023-02-13T22:43:53.713Z,56.81
2023-02-13T22:46:33.335Z,57.07
2023-02-13T22:49:00.214Z,57.39
2023-02-13T22:51:34.230Z,56.55
2023-02-13T22:54:04.966Z,57.76
2023-02-13T22:56:33.701Z,59.22
2023-02-13T22:59:00.515Z,58.30
2023-02-13T23:01:28.973Z,57.33
2023-02-13T23:03:56.715Z,56.32
2023-02-13T23:06:24.830Z,57.28
2023-02-13T23:08:55.137Z,57.76
2023-02-13T23:11:43.380Z,57.64
2023-02-13T23:14:11.157Z,57.51
2023-02-13T23:16:58.204Z,57.41
2023-02-13T23:19:25.588Z,56.11
2023-02-13T23:21:52.289Z,54.79
2023-02-13T23:24:18.950Z,54.90
2023-02-13T23:26:45.633Z,55.34
2023-02-13T23:29:12.208Z,56.46
2023-02-13T23:31:38.925Z,55.79
2023-02-13T23:34:05.686Z,55.31
2023-02-13T23:36:32.374Z,55.27
2023-02-13T23:38:58.956Z,57.91
2023-02-13T23:41:25.589Z,56.38
2023-02-13T23:43:52.135Z,56.85
2023-02-13T23:46:18.815Z,56.14
2023-02-13T23:48:46.160Z,56.78
2023-02-13T23:51:13.093Z,56.77
2023-02-13T23:53:39.878Z,56.32
2023-02-13T23:56:10.269Z,56.45
2023-02-13T23:58:36.835Z,56.60
